createdAt,value
2018-10-02T00:02:18.087Z,6.62
2018-10-02T00:04:46.379Z,7.03
2018-10-02T00:07:14.719Z,6.42
2018-10-02T00:09:42.991Z,5.87
2018-10-02T00:15:14.911Z,6.67
2018-10-02T00:17:43.343Z,6.75
2018-10-02T00:20:11.910Z,6.47
2018-10-02T00:22:40.405Z,7.17
2018-10-02T00:25:08.897Z,6.40
2018-10-02T00:27:37.464Z,6.50
2018-10-02T00:30:05.773Z,6.33
2018-10-02T00:32:34.084Z,6.30
2018-10-02T00:35:02.429Z,7.12
2018-10-02T00:37:31.705Z,5.78
2018-10-02T00:40:00.011Z,7.75
2018-10-02T00:42:28.352Z,6.20
2018-10-02T00:44:56.676Z,5.75
2018-10-02T00:47:24.984Z,6.12
2018-10-02T00:49:53.280Z,6.35
2018-10-02T00:52:21.603Z,5.78
2018-10-02T00:54:49.922Z,5.80
2018-10-02T00:57:18.221Z,6.60
2018-10-02T00:59:46.528Z,6.10
2018-10-02T01:02:14.837Z,6.37
2018-10-02T01:04:43.147Z,6.72
2018-10-02T01:07:11.460Z,7.30
2018-10-02T01:09:40.725Z,5.03
2018-10-02T01:12:09.034Z,6.22
2018-10-02T01:14:37.329Z,6.65
2018-10-02T01:17:05.650Z,6.05
2018-10-02T01:19:33.940Z,6.10
2018-10-02T01:22:02.247Z,5.85
2018-10-02T01:24:30.546Z,5.62
2018-10-02T01:26:58.846Z,6.55
2018-10-02T01:29:39.918Z,6.00
2018-10-02T01:32:08.221Z,6.05
2018-10-02T01:34:36.517Z,6.28
2018-10-02T01:37:04.806Z,6.50
2018-10-02T01:39:33.188Z,6.25
2018-10-02T01:42:01.452Z,6.30
2018-10-02T01:44:29.721Z,6.08
2018-10-02T01:46:58.030Z,6.75
2018-10-02T01:49:26.309Z,7.25
2018-10-02T01:51:54.594Z,6.87
2018-10-02T01:54:22.905Z,5.60
2018-10-02T01:56:51.196Z,6.80
2018-10-02T01:59:19.482Z,6.95
2018-10-02T02:01:47.784Z,7.97
2018-10-02T02:04:16.106Z,7.33
2018-10-02T02:06:44.397Z,7.22
2018-10-02T02:09:12.695Z,7.45
2018-10-02T02:11:40.977Z,7.85
2018-10-02T02:14:09.268Z,6.45
2018-10-02T02:16:37.569Z,6.70
2018-10-02T02:19:05.859Z,6.70
2018-10-02T02:21:34.146Z,8.00
2018-10-02T02:24:02.441Z,7.20
2018-10-02T02:26:30.732Z,7.05
2018-10-02T02:28:59.029Z,7.80
2018-10-02T02:31:27.318Z,6.75
2018-10-02T02:33:55.621Z,7.03
2018-10-02T02:36:23.921Z,6.70
2018-10-02T02:38:52.249Z,6.72
2018-10-02T02:41:20.589Z,7.90
2018-10-02T02:43:48.877Z,7.35
2018-10-02T02:46:17.173Z,8.00
2018-10-02T02:48:51.149Z,7.30
2018-10-02T02:51:19.439Z,7.45
2018-10-02T02:53:47.733Z,7.85
2018-10-02T02:56:16.022Z,7.30
2018-10-02T02:58:44.309Z,7.83
2018-10-02T03:01:12.610Z,6.90
2018-10-02T03:03:40.889Z,7.60
2018-10-02T03:06:09.178Z,8.10
2018-10-02T03:08:37.480Z,7.92
2018-10-02T03:11:05.762Z,7.95
2018-10-02T03:13:34.049Z,7.47
2018-10-02T03:16:02.344Z,6.67
2018-10-02T03:18:30.635Z,6.83
2018-10-02T03:20:58.926Z,7.37
2018-10-02T03:23:27.275Z,8.18
2018-10-02T03:25:55.565Z,6.92
2018-10-02T03:28:23.853Z,7.28
2018-10-02T03:30:52.153Z,7.70
2018-10-02T03:33:20.444Z,7.05
2018-10-02T03:35:48.734Z,7.42
2018-10-02T03:38:17.035Z,6.85
2018-10-02T03:40:45.321Z,6.50
2018-10-02T03:43:13.610Z,8.05
2018-10-02T03:45:41.909Z,7.67
2018-10-02T03:48:10.201Z,6.55
2018-10-02T03:50:38.487Z,7.70
2018-10-02T03:53:06.782Z,7.97
2018-10-02T03:55:35.069Z,6.87
2018-10-02T03:58:03.354Z,8.38
2018-10-02T04:00:31.649Z,7.00
2018-10-02T04:02:59.939Z,7.28
2018-10-02T04:05:28.229Z,7.60
2018-10-02T04:07:56.514Z,8.10
2018-10-02T04:10:24.820Z,7.62
2018-10-02T04:12:53.113Z,7.05
2018-10-02T04:15:21.394Z,7.37
2018-10-02T04:17:49.679Z,7.30
2018-10-02T04:20:17.969Z,7.35
2018-10-02T04:22:46.257Z,7.28
2018-10-02T04:25:14.550Z,7.95
2018-10-02T04:27:42.907Z,7.83
2018-10-02T04:30:11.138Z,7.45
2018-10-02T04:32:39.413Z,7.75
2018-10-02T04:35:07.732Z,7.67
2018-10-02T04:37:36.009Z,7.87
2018-10-02T04:40:04.413Z,8.15
2018-10-02T04:42:32.693Z,7.12
2018-10-02T04:45:00.989Z,8.00
2018-10-02T04:47:29.301Z,7.20
2018-10-02T04:49:57.593Z,8.08
2018-10-02T04:52:25.882Z,7.42
2018-10-02T04:54:54.190Z,7.72
2018-10-02T04:57:22.470Z,7.85
2018-10-02T04:59:50.757Z,7.85
2018-10-02T05:02:19.160Z,8.60
2018-10-02T05:04:47.349Z,8.63
2018-10-02T05:07:15.642Z,9.53
2018-10-02T05:09:43.942Z,8.40
2018-10-02T05:12:12.225Z,9.03
2018-10-02T05:14:40.531Z,9.48
2018-10-02T05:17:08.811Z,8.60
2018-10-02T05:19:37.103Z,8.68
2018-10-02T05:22:05.390Z,8.70
2018-10-02T05:24:33.678Z,9.10
2018-10-02T05:27:02.042Z,9.78
2018-10-02T05:29:30.285Z,9.20
2018-10-02T05:31:58.577Z,9.30
2018-10-02T05:34:26.886Z,10.30
2018-10-02T05:36:55.166Z,10.53
2018-10-02T05:39:23.454Z,10.05
2018-10-02T05:41:51.756Z,9.78
2018-10-02T05:44:20.035Z,9.20
2018-10-02T05:46:48.350Z,8.70
2018-10-02T05:49:16.636Z,9.50
2018-10-02T05:51:45.038Z,8.50
2018-10-02T05:54:13.329Z,9.18
2018-10-02T05:56:41.618Z,9.28
2018-10-02T05:59:09.919Z,10.72
2018-10-02T06:01:38.206Z,9.78
2018-10-02T06:04:06.495Z,9.60
2018-10-02T06:06:34.813Z,10.85
2018-10-02T06:09:03.097Z,9.95
2018-10-02T06:11:31.402Z,10.05
2018-10-02T06:13:59.691Z,9.40
2018-10-02T06:16:27.990Z,9.63
2018-10-02T06:18:56.288Z,9.63
2018-10-02T06:21:24.574Z,10.45
2018-10-02T06:23:52.892Z,10.18
2018-10-02T06:26:21.173Z,9.73
2018-10-02T06:28:49.478Z,9.25
2018-10-02T06:31:17.772Z,10.78
2018-10-02T06:33:46.066Z,10.48
2018-10-02T06:36:14.382Z,10.08
2018-10-02T06:38:42.677Z,9.28
2018-10-02T06:41:10.978Z,9.15
2018-10-02T06:43:39.338Z,9.35
2018-10-02T06:46:07.550Z,9.23
2018-10-02T06:48:35.904Z,10.13
2018-10-02T06:51:06.191Z,9.35
2018-10-02T06:53:34.381Z,10.08
2018-10-02T06:56:02.754Z,9.63
2018-10-02T06:58:31.058Z,10.15
2018-10-02T07:00:59.362Z,10.40
2018-10-02T07:03:27.707Z,9.83
2018-10-02T07:05:55.970Z,9.95
2018-10-02T07:08:24.343Z,9.05
2018-10-02T07:10:52.602Z,9.60
2018-10-02T07:13:20.939Z,10.45
2018-10-02T07:15:49.206Z,9.13
2018-10-02T07:18:17.538Z,7.05
2018-10-02T07:20:45.916Z,7.53
2018-10-02T07:23:14.145Z,6.78
2018-10-02T07:25:42.449Z,7.85
2018-10-02T07:28:10.773Z,7.78
2018-10-02T07:30:39.111Z,7.80
2018-10-02T07:33:07.396Z,8.78
2018-10-02T07:35:35.627Z,7.53
2018-10-02T07:38:03.907Z,7.00
2018-10-02T07:40:32.190Z,6.77
2018-10-02T07:43:00.474Z,6.73
2018-10-02T07:45:28.830Z,7.67
2018-10-02T07:47:57.171Z,6.10
2018-10-02T07:50:25.416Z,6.60
2018-10-02T07:52:53.700Z,6.50
2018-10-02T07:55:21.988Z,8.10
2018-10-02T07:57:50.367Z,7.40
2018-10-02T08:00:18.634Z,6.87
2018-10-02T08:02:47.018Z,7.90
2018-10-02T08:05:15.348Z,6.17
2018-10-02T08:07:43.614Z,6.87
2018-10-02T08:10:11.892Z,8.00
2018-10-02T08:12:40.177Z,6.90
2018-10-02T08:15:08.467Z,6.63
2018-10-02T08:17:36.755Z,7.50
2018-10-02T08:20:05.485Z,6.90
2018-10-02T08:22:33.732Z,7.33
2018-10-02T08:25:02.034Z,8.00
2018-10-02T08:27:31.038Z,7.47
2018-10-02T08:29:59.532Z,8.20
2018-10-02T08:32:27.806Z,6.67
2018-10-02T08:34:56.138Z,7.83
2018-10-02T08:37:24.494Z,7.07
2018-10-02T08:39:52.790Z,7.50
2018-10-02T08:42:21.114Z,7.00
2018-10-02T08:44:49.505Z,7.80
2018-10-02T08:47:17.790Z,7.40
2018-10-02T08:49:46.071Z,6.50
2018-10-02T08:52:14.508Z,7.37
2018-10-02T08:54:42.690Z,7.47
2018-10-02T08:57:10.974Z,7.30
2018-10-02T08:59:39.247Z,7.97
2018-10-02T09:02:07.541Z,6.40
2018-10-02T09:04:35.822Z,6.80
2018-10-02T09:07:04.149Z,7.20
2018-10-02T09:09:32.394Z,7.23
2018-10-02T09:12:00.665Z,6.80
2018-10-02T09:14:28.949Z,7.00
2018-10-02T09:16:57.306Z,7.67
2018-10-02T09:19:25.598Z,6.70
2018-10-02T09:21:53.965Z,7.20
2018-10-02T09:24:22.247Z,6.70
2018-10-02T09:26:50.535Z,7.23
2018-10-02T09:29:18.851Z,7.10
2018-10-02T09:32:02.412Z,5.90
2018-10-02T09:43:45.772Z,6.57
2018-10-02T09:46:14.948Z,8.00
2018-10-02T09:48:43.366Z,9.10
2018-10-02T09:51:11.547Z,7.17
2018-10-02T09:53:39.849Z,7.50
2018-10-02T09:56:08.153Z,8.37
2018-10-02T09:58:36.458Z,7.70
2018-10-02T10:01:04.815Z,6.00
2018-10-02T10:03:33.056Z,6.77
2018-10-02T10:06:01.354Z,6.47
2018-10-02T10:08:29.664Z,7.40
2018-10-02T10:10:57.974Z,7.77
2018-10-02T10:13:26.268Z,6.80
2018-10-02T10:15:54.574Z,5.80
2018-10-02T10:18:22.920Z,6.33
2018-10-02T10:20:51.211Z,5.50
2018-10-02T10:23:19.584Z,5.17
2018-10-02T10:25:47.916Z,5.33
2018-10-02T10:35:17.375Z,6.07
2018-10-02T10:37:45.681Z,7.00
2018-10-02T10:40:13.994Z,7.27
2018-10-02T10:42:42.303Z,6.47
2018-10-02T10:45:10.591Z,6.60
2018-10-02T10:47:38.914Z,5.70
2018-10-02T10:50:07.192Z,5.20
2018-10-02T10:52:35.505Z,5.03
2018-10-02T10:55:16.447Z,5.40
2018-10-02T10:57:44.729Z,5.63
2018-10-02T11:00:13.062Z,5.17
2018-10-02T11:02:41.375Z,6.03
2018-10-02T11:05:10.659Z,5.90
2018-10-02T11:07:38.899Z,7.57
2018-10-02T11:10:07.203Z,5.33
2018-10-02T11:12:35.513Z,5.73
2018-10-02T11:15:04.045Z,5.83
2018-10-02T11:17:32.331Z,5.27
2018-10-02T11:20:00.621Z,5.47
2018-10-02T11:22:29.855Z,5.50
2018-10-02T11:24:58.173Z,5.80
2018-10-02T11:27:26.483Z,6.27
2018-10-02T11:29:54.797Z,5.30
2018-10-02T11:32:23.088Z,5.77
2018-10-02T11:34:51.400Z,5.43
2018-10-02T11:37:20.717Z,5.33
2018-10-02T11:39:48.958Z,5.43
2018-10-02T11:42:17.279Z,4.43
2018-10-02T11:44:45.664Z,5.63
2018-10-02T11:47:13.925Z,5.80
2018-10-02T11:49:42.347Z,5.63
2018-10-02T11:52:10.608Z,5.17
2018-10-02T11:54:38.897Z,4.80
2018-10-02T11:57:07.199Z,4.80
2018-10-02T11:59:35.494Z,4.60
2018-10-02T12:02:03.801Z,5.23
2018-10-02T12:04:32.092Z,5.60
2018-10-02T12:07:00.421Z,4.87
2018-10-02T12:09:29.672Z,4.50
2018-10-02T12:11:59.900Z,4.10
2018-10-02T12:14:28.452Z,6.90
2018-10-02T12:16:57.495Z,4.03
2018-10-02T12:19:29.711Z,4.50
2018-10-02T12:28:54.431Z,4.37
2018-10-02T12:31:22.865Z,4.37
2018-10-02T12:33:51.002Z,5.07
2018-10-02T12:36:19.278Z,5.10
2018-10-02T12:38:47.565Z,5.37
2018-10-02T12:41:15.846Z,4.60
2018-10-02T12:43:44.123Z,4.90
2018-10-02T12:46:12.440Z,4.30
2018-10-02T12:48:40.703Z,4.70
2018-10-02T12:51:08.971Z,4.73
2018-10-02T12:53:37.264Z,5.70
2018-10-02T12:56:05.542Z,4.47
2018-10-02T12:58:33.838Z,5.33
2018-10-02T13:01:02.402Z,5.03
2018-10-02T13:03:30.905Z,4.70
2018-10-02T13:05:59.246Z,5.03
2018-10-02T13:08:27.552Z,5.20
2018-10-02T13:10:55.839Z,5.80
2018-10-02T13:13:24.124Z,5.37
2018-10-02T13:15:52.411Z,5.13
2018-10-02T13:18:20.707Z,4.70
2018-10-02T13:20:49.111Z,4.30
2018-10-02T13:23:17.495Z,5.57
2018-10-02T13:25:45.823Z,4.90
2018-10-02T13:28:14.094Z,5.10
2018-10-02T13:30:42.389Z,5.17
2018-10-02T13:33:10.728Z,5.20
2018-10-02T13:35:39.060Z,5.20
2018-10-02T13:38:07.431Z,5.70
2018-10-02T13:40:35.752Z,5.10
2018-10-02T13:43:04.274Z,4.67
2018-10-02T13:45:32.773Z,4.80
2018-10-02T13:48:01.861Z,5.20
2018-10-02T13:50:31.130Z,5.30
2018-10-02T13:53:00.400Z,4.70
2018-10-02T13:55:29.719Z,4.70
2018-10-02T13:57:58.935Z,4.53
2018-10-02T14:00:28.307Z,4.80
2018-10-02T14:02:57.583Z,5.23
2018-10-02T14:05:26.931Z,5.00
2018-10-02T14:07:56.358Z,4.60
2018-10-02T14:10:25.621Z,5.50
2018-10-02T14:12:54.986Z,5.83
2018-10-02T14:15:24.308Z,4.50
2018-10-02T14:17:53.645Z,5.23
2018-10-02T14:20:23.039Z,5.20
2018-10-02T14:22:52.422Z,5.70
2018-10-02T14:25:21.782Z,4.97
2018-10-02T14:27:51.710Z,6.37
2018-10-02T14:30:21.187Z,6.20
2018-10-02T14:32:50.622Z,6.20
2018-10-02T14:35:19.939Z,6.30
2018-10-02T14:37:49.390Z,6.40
2018-10-02T14:40:18.722Z,5.93
2018-10-02T14:42:48.207Z,5.80
2018-10-02T14:45:17.625Z,6.30
2018-10-02T14:47:46.945Z,6.60
2018-10-02T14:50:16.338Z,6.10
2018-10-02T14:52:45.655Z,6.63
2018-10-02T14:55:15.080Z,6.37
2018-10-02T14:57:45.312Z,7.60
2018-10-02T15:00:14.766Z,6.10
2018-10-02T15:02:44.254Z,5.80
2018-10-02T15:05:13.569Z,6.37
2018-10-02T15:07:42.970Z,7.80
2018-10-02T15:10:12.361Z,6.10
2018-10-02T15:12:41.779Z,6.13
2018-10-02T15:15:11.075Z,6.53
2018-10-02T15:17:40.409Z,6.93
2018-10-02T15:20:09.781Z,6.40
2018-10-02T15:22:39.114Z,6.00
2018-10-02T15:25:08.568Z,7.30
2018-10-02T15:27:37.902Z,6.60
2018-10-02T15:30:08.198Z,6.47
2018-10-02T15:32:37.760Z,7.00
2018-10-02T15:35:07.253Z,5.80
2018-10-02T15:37:36.658Z,6.37
2018-10-02T15:40:06.642Z,7.40
2018-10-02T15:42:36.161Z,6.07
2018-10-02T15:45:05.624Z,6.23
2018-10-02T15:47:35.039Z,6.60
2018-10-02T15:50:04.493Z,5.90
2018-10-02T15:52:33.899Z,5.70
2018-10-02T15:55:03.325Z,6.60
2018-10-02T15:57:32.704Z,6.23
2018-10-02T16:00:02.912Z,6.53
2018-10-02T16:02:32.282Z,5.63
2018-10-02T16:05:01.722Z,6.10
2018-10-02T16:07:31.069Z,5.87
2018-10-02T16:10:00.401Z,5.40
2018-10-02T16:12:29.885Z,5.87
2018-10-02T16:14:59.744Z,6.33
2018-10-02T16:17:29.140Z,5.77
2018-10-02T16:19:58.418Z,5.43
2018-10-02T16:22:28.516Z,5.13
2018-10-02T16:24:57.958Z,5.57
2018-10-02T16:27:27.324Z,6.00
2018-10-02T16:29:57.049Z,5.20
2018-10-02T16:32:27.199Z,6.07
2018-10-02T16:34:56.779Z,5.97
2018-10-02T16:37:26.027Z,5.40
2018-10-02T16:39:55.538Z,5.77
2018-10-02T16:42:25.049Z,4.90
2018-10-02T16:44:55.265Z,5.63
2018-10-02T16:47:24.744Z,5.37
2018-10-02T16:49:54.112Z,5.23
2018-10-02T16:52:23.605Z,6.10
2018-10-02T16:54:53.073Z,6.00
2018-10-02T16:57:23.424Z,4.83
2018-10-02T16:59:53.776Z,5.00
2018-10-02T17:02:23.204Z,5.20
2018-10-02T17:04:52.680Z,5.70
2018-10-02T17:07:21.981Z,5.20
2018-10-02T17:09:51.461Z,5.13
2018-10-02T17:12:20.896Z,5.40
2018-10-02T17:14:50.335Z,5.73
2018-10-02T17:17:19.729Z,5.23
2018-10-02T17:19:49.170Z,5.43
2018-10-02T17:22:18.505Z,5.03
2018-10-02T17:24:47.965Z,5.83
2018-10-02T17:27:17.303Z,4.63
2018-10-02T17:29:46.777Z,5.47
2018-10-02T17:32:16.225Z,5.60
2018-10-02T17:34:45.908Z,5.70
2018-10-02T17:37:16.267Z,5.63
2018-10-02T17:39:45.650Z,5.20
2018-10-02T17:42:15.109Z,5.60
2018-10-02T17:44:44.562Z,4.80
2018-10-02T17:47:14.117Z,5.20
2018-10-02T17:49:43.483Z,6.00
2018-10-02T17:52:12.846Z,5.07
2018-10-02T17:54:42.367Z,5.47
2018-10-02T17:57:12.592Z,5.67
2018-10-02T17:59:42.413Z,5.27
2018-10-02T18:02:12.308Z,5.70
2018-10-02T18:04:42.681Z,5.60
2018-10-02T18:07:13.910Z,6.10
2018-10-02T18:09:44.372Z,4.80
2018-10-02T18:12:14.758Z,5.53
2018-10-02T18:14:45.713Z,5.00
2018-10-02T18:17:15.216Z,4.93
2018-10-02T18:19:44.869Z,5.30
2018-10-02T18:22:14.417Z,5.27
2018-10-02T18:24:44.449Z,5.67
2018-10-02T18:27:13.999Z,5.30
2018-10-02T18:29:44.371Z,4.67
2018-10-02T18:32:15.466Z,4.70
2018-10-02T18:34:46.023Z,5.20
2018-10-02T18:37:15.403Z,5.13
2018-10-02T18:39:45.887Z,5.00
2018-10-02T18:42:16.765Z,4.90
2018-10-02T18:44:47.757Z,5.13
2018-10-02T18:47:17.876Z,5.40
2018-10-02T18:49:48.301Z,5.33
2018-10-02T18:52:17.921Z,7.23
2018-10-02T18:54:48.434Z,5.30
2018-10-02T18:57:18.998Z,5.07
2018-10-02T18:59:49.132Z,5.20
2018-10-02T19:02:18.723Z,5.70
2018-10-02T19:04:49.159Z,5.00
2018-10-02T19:07:18.614Z,4.90
2018-10-02T19:09:48.270Z,5.13
2018-10-02T19:12:18.859Z,5.67
2018-10-02T19:14:48.904Z,5.33
2018-10-02T19:17:19.507Z,5.17
2018-10-02T19:19:51.482Z,5.60
2018-10-02T19:22:21.081Z,4.93
2018-10-02T19:24:51.552Z,5.37
2018-10-02T19:27:21.114Z,5.97
2018-10-02T19:29:52.324Z,4.90
2018-10-02T19:32:23.735Z,5.87
2018-10-02T19:34:54.349Z,5.50
2018-10-02T19:37:23.997Z,5.37
2018-10-02T19:39:54.468Z,5.67
2018-10-02T19:42:24.673Z,4.90
2018-10-02T19:44:55.094Z,5.03
2018-10-02T19:47:25.563Z,5.30
2018-10-02T19:49:57.370Z,5.30
2018-10-02T19:52:27.368Z,5.30
2018-10-02T19:54:57.889Z,5.90
2018-10-02T19:57:28.746Z,5.93
2018-10-02T19:59:59.225Z,5.90
2018-10-02T20:02:28.685Z,5.77
2018-10-02T20:04:59.265Z,6.67
2018-10-02T20:07:28.899Z,5.17
2018-10-02T20:09:58.674Z,6.10
2018-10-02T20:12:28.567Z,6.23
2018-10-02T20:14:58.326Z,6.00
2018-10-02T20:17:28.223Z,5.13
2018-10-02T20:19:57.844Z,5.53
2018-10-02T20:22:28.471Z,6.20
2018-10-02T20:24:59.153Z,5.20
2018-10-02T20:27:29.816Z,5.63
2018-10-02T20:30:00.674Z,5.43
2018-10-02T20:32:30.193Z,5.60
2018-10-02T20:35:03.540Z,5.83
2018-10-02T20:37:34.261Z,5.00
2018-10-02T20:40:03.835Z,5.13
2018-10-02T20:42:33.885Z,4.77
2018-10-02T20:45:05.236Z,5.17
2018-10-02T20:47:35.679Z,5.10
2018-10-02T20:50:05.260Z,5.30
2018-10-02T20:52:35.754Z,5.47
2018-10-02T20:55:05.366Z,5.70
2018-10-02T20:57:34.826Z,5.70
2018-10-02T21:00:04.836Z,5.90
2018-10-02T21:02:35.094Z,5.33
2018-10-02T21:05:06.386Z,5.77
2018-10-02T21:07:36.013Z,6.90
2018-10-02T21:10:05.520Z,6.00
2018-10-02T21:12:35.314Z,6.47
2018-10-02T21:15:05.180Z,5.60
2018-10-02T21:17:34.629Z,5.83
2018-10-02T21:20:04.335Z,6.67
2018-10-02T21:22:34.005Z,6.37
2018-10-02T21:25:04.030Z,6.23
2018-10-02T21:27:33.597Z,6.63
2018-10-02T21:30:03.053Z,7.47
2018-10-02T21:32:32.494Z,6.40
2018-10-02T21:35:01.880Z,6.17
2018-10-02T21:37:32.199Z,6.13
2018-10-02T21:40:01.683Z,8.07
2018-10-02T21:42:31.246Z,5.97
2018-10-02T21:45:00.520Z,6.10
2018-10-02T21:47:30.026Z,6.70
2018-10-02T21:49:59.438Z,6.70
2018-10-02T21:52:29.899Z,6.30
2018-10-02T21:54:59.315Z,5.83
2018-10-02T21:57:28.708Z,6.70
2018-10-02T21:59:58.234Z,6.67
2018-10-02T22:02:27.580Z,6.27
2018-10-02T22:04:57.130Z,5.73
2018-10-02T22:07:26.441Z,6.13
2018-10-02T22:09:55.829Z,5.40
2018-10-02T22:12:25.289Z,5.90
2018-10-02T22:14:54.555Z,6.63
2018-10-02T22:17:23.981Z,5.33
2018-10-02T22:19:53.346Z,6.27
2018-10-02T22:22:22.805Z,6.17
2018-10-02T22:24:52.263Z,7.37
2018-10-02T22:27:21.581Z,6.50
2018-10-02T22:29:50.932Z,5.80
2018-10-02T22:32:20.224Z,5.97
2018-10-02T22:34:49.529Z,5.63
2018-10-02T22:37:18.880Z,6.00
2018-10-02T22:39:47.815Z,6.30
2018-10-02T22:42:16.809Z,6.83
2018-10-02T22:44:45.369Z,6.37
2018-10-02T23:02:01.510Z,6.00
2018-10-02T23:04:29.827Z,7.60
2018-10-02T23:06:58.154Z,6.13
2018-10-02T23:09:26.544Z,5.80
2018-10-02T23:11:54.841Z,6.30
2018-10-02T23:14:23.119Z,6.50
2018-10-02T23:16:51.411Z,6.87
2018-10-02T23:19:19.754Z,6.03
2018-10-02T23:21:48.052Z,5.73
2018-10-02T23:24:16.350Z,5.87
2018-10-02T23:26:44.627Z,5.73
2018-10-02T23:29:12.916Z,6.07
2018-10-02T23:31:41.204Z,6.30
2018-10-02T23:34:09.491Z,6.93
2018-10-02T23:36:37.787Z,6.27
2018-10-02T23:39:06.082Z,6.50
2018-10-02T23:41:34.370Z,6.60
2018-10-02T23:44:02.651Z,7.70
2018-10-02T23:46:30.943Z,5.93
2018-10-02T23:48:59.227Z,6.37
2018-10-02T23:51:27.522Z,6.47
2018-10-02T23:53:55.798Z,6.23
2018-10-02T23:56:24.094Z,6.20
2018-10-02T23:58:52.375Z,6.50
